Time;durP1;ratioP1;P1;durP2;ratioP2;P2;SDS_P1;SDS_P2;PMS_P1;PMS_P2;Temp;Humidity;BMP_temperature;BMP_pressure;BME280_temperature;BME280_humidity;BME280_pressure;Samples;Min_cycle;Max_cycle;Signal;HPM_P1;HPM_P2
2021/09/23 00:01:39;;;;;;;11.33;8.53;;;;;11.20;101872.00;;;;10432545;28;20229;-77
2021/09/23 00:06:41;;;;;;;11.83;8.77;;;;;11.10;101854.00;;;;10449660;28;20597;-77
2021/09/23 00:11:43;;;;;;;12.00;7.57;;;;;11.10;101856.00;;;;10435832;28;20616;-77
2021/09/23 00:16:45;;;;;;;9.53;8.10;;;;;11.10;101841.00;;;;10485974;28;20198;-78
2021/09/23 00:21:47;;;;;;;11.30;7.93;;;;;11.00;101817.00;;;;10473744;28;20213;-78
2021/09/23 00:26:49;;;;;;;9.60;6.63;;;;;10.90;101820.00;;;;10433902;28;20660;-77
2021/09/23 00:31:51;;;;;;;11.23;7.90;;;;;10.90;101811.00;;;;10431315;28;20653;-77
2021/09/23 00:36:53;;;;;;;13.87;8.10;;;;;10.90;101817.00;;;;10438983;28;20226;-77
2021/09/23 00:41:57;;;;;;;11.20;7.50;;;;;10.90;101820.00;;;;10452056;28;20603;-78
2021/09/23 00:46:59;;;;;;;11.93;8.00;;;;;10.90;101814.00;;;;10398727;28;20201;-77
2021/09/23 00:52:03;;;;;;;11.03;7.67;;;;;10.90;101810.00;;;;10415179;28;20668;-77
2021/09/23 00:57:05;;;;;;;10.27;6.93;;;;;10.80;101805.00;;;;10440263;28;20205;-77
2021/09/23 01:02:07;;;;;;;8.80;6.80;;;;;10.70;101797.00;;;;10445439;28;20256;-78
2021/09/23 01:07:15;;;;;;;9.43;6.53;;;;;10.60;101799.00;;;;10459097;28;20201;-77
2021/09/23 01:12:21;;;;;;;11.47;7.63;;;;;10.60;101786.00;;;;10429525;28;20277;-77
2021/09/23 01:17:24;;;;;;;10.20;7.07;;;;;10.50;101762.00;;;;10431576;28;20228;-78
2021/09/23 01:22:32;;;;;;;12.23;7.80;;;;;10.50;101755.00;;;;10433539;28;20248;-77
2021/09/23 01:27:49;;;;;;;12.33;7.67;;;;;10.50;101756.00;;;;10441826;28;20194;-78
2021/09/23 01:33:11;;;;;;;11.63;8.30;;;;;10.40;101745.00;;;;10472435;28;20259;-77
2021/09/23 01:38:13;;;;;;;12.37;8.60;;;;;10.40;101738.00;;;;10422429;28;20202;-77
2021/09/23 01:43:15;;;;;;;11.10;8.50;;;;;10.40;101739.00;;;;10483764;28;20668;-77
2021/09/23 01:48:17;;;;;;;14.73;9.60;;;;;10.50;101739.00;;;;10483108;28;20196;-77
2021/09/23 01:53:23;;;;;;;12.53;8.83;;;;;10.50;101724.00;;;;10505586;28;20216;-77
2021/09/23 01:58:25;;;;;;;16.00;9.37;;;;;10.40;101722.00;;;;10461707;28;20233;-78
2021/09/23 02:03:27;;;;;;;14.57;10.10;;;;;10.40;101717.00;;;;10442500;28;20217;-77
2021/09/23 02:08:45;;;;;;;12.30;8.67;;;;;10.30;101712.00;;;;10456455;28;20193;-78
2021/09/23 02:13:48;;;;;;;14.20;9.07;;;;;10.30;101720.00;;;;10452144;28;20310;-77
2021/09/23 02:18:50;;;;;;;15.67;9.77;;;;;10.30;101693.00;;;;10451941;28;20197;-77
2021/09/23 02:23:56;;;;;;;11.07;8.23;;;;;10.20;101703.00;;;;10443768;28;20699;-77
2021/09/23 02:28:58;;;;;;;13.90;10.13;;;;;10.20;101704.00;;;;10437790;28;20187;-77
2021/09/23 02:34:00;;;;;;;13.87;9.57;;;;;10.20;101700.00;;;;10429294;28;20186;-76
2021/09/23 02:39:03;;;;;;;13.87;9.63;;;;;10.10;101698.00;;;;10426468;28;20222;-77
2021/09/23 02:44:05;;;;;;;12.50;7.90;;;;;10.00;101704.00;;;;10425913;28;20260;-77
2021/09/23 02:49:07;;;;;;;13.07;8.00;;;;;9.90;101704.00;;;;10430788;28;20198;-77
2021/09/23 02:54:09;;;;;;;11.93;8.63;;;;;9.80;101696.00;;;;10467102;28;20213;-77
2021/09/23 02:59:11;;;;;;;14.30;8.90;;;;;9.80;101692.00;;;;10448697;28;20284;-77
2021/09/23 03:04:13;;;;;;;17.03;10.63;;;;;9.80;101677.00;;;;10443080;28;20208;-77
2021/09/23 03:09:15;;;;;;;17.37;10.97;;;;;9.80;101672.00;;;;10467812;28;20221;-77
2021/09/23 03:14:17;;;;;;;17.93;10.77;;;;;9.80;101680.00;;;;10455127;28;20221;-78
2021/09/23 03:19:19;;;;;;;15.27;10.03;;;;;9.80;101660.00;;;;10450729;28;20206;-77
2021/09/23 03:24:22;;;;;;;18.27;9.87;;;;;9.70;101642.00;;;;10419536;28;20278;-77
2021/09/23 03:29:24;;;;;;;17.17;10.87;;;;;9.70;101627.00;;;;10441409;28;20194;-77
2021/09/23 03:34:26;;;;;;;15.00;9.87;;;;;9.70;101631.00;;;;10451685;28;20189;-77
2021/09/23 03:39:28;;;;;;;19.60;11.17;;;;;9.80;101628.00;;;;10471174;28;20292;-77
2021/09/23 03:44:30;;;;;;;21.03;13.00;;;;;9.90;101624.00;;;;10469543;28;20233;-77
2021/09/23 03:49:32;;;;;;;23.43;13.60;;;;;10.00;101620.00;;;;10438001;28;20194;-78
2021/09/23 03:54:34;;;;;;;20.07;12.63;;;;;10.00;101619.00;;;;10452810;28;20660;-78
2021/09/23 03:59:36;;;;;;;19.07;12.00;;;;;10.00;101612.00;;;;10455162;28;20622;-78
2021/09/23 04:04:38;;;;;;;25.10;13.63;;;;;10.00;101605.00;;;;10457341;28;20210;-77
2021/09/23 04:09:41;;;;;;;21.77;13.33;;;;;10.10;101609.00;;;;10448045;28;20205;-77
2021/09/23 04:14:43;;;;;;;21.07;14.50;;;;;10.10;101629.00;;;;10471848;28;20183;-78
2021/09/23 04:19:46;;;;;;;22.37;13.63;;;;;10.10;101647.00;;;;10446690;28;20209;-77
2021/09/23 04:24:48;;;;;;;20.50;13.83;;;;;10.00;101638.00;;;;10440593;28;20214;-77
2021/09/23 04:29:50;;;;;;;21.67;12.87;;;;;9.90;101632.00;;;;10486886;28;20186;-78
2021/09/23 04:34:52;;;;;;;16.43;12.70;;;;;9.80;101614.00;;;;10446136;28;20293;-77
2021/09/23 04:39:54;;;;;;;21.37;13.83;;;;;9.80;101616.00;;;;10412691;28;20226;-77
2021/09/23 04:44:56;;;;;;;22.47;14.47;;;;;9.70;101615.00;;;;10449061;28;20615;-76
2021/09/23 04:49:58;;;;;;;24.40;15.13;;;;;9.80;101634.00;;;;10460626;28;20213;-77
2021/09/23 04:55:00;;;;;;;25.00;16.07;;;;;9.80;101627.00;;;;10446065;28;20564;-77
2021/09/23 05:00:06;;;;;;;23.90;15.07;;;;;9.80;101640.00;;;;10432437;28;20204;-77
2021/09/23 05:05:10;;;;;;;26.80;16.20;;;;;9.80;101635.00;;;;10438028;28;20194;-77
2021/09/23 05:10:16;;;;;;;27.47;16.57;;;;;9.90;101640.00;;;;10467858;28;20198;-77
2021/09/23 05:15:20;;;;;;;27.27;18.17;;;;;10.00;101635.00;;;;10507135;28;20185;-76
2021/09/23 05:20:23;;;;;;;29.20;18.73;;;;;10.00;101646.00;;;;10427969;28;20248;-78
2021/09/23 05:25:27;;;;;;;28.93;17.33;;;;;10.10;101645.00;;;;10425165;28;20202;-76
2021/09/23 05:30:29;;;;;;;25.70;16.33;;;;;10.10;101644.00;;;;10463317;28;20205;-77
2021/09/23 05:35:31;;;;;;;30.07;18.87;;;;;10.20;101625.00;;;;10466703;28;20194;-77
2021/09/23 05:40:33;;;;;;;31.53;17.77;;;;;10.30;101626.00;;;;10416762;28;20224;-77
2021/09/23 05:45:35;;;;;;;29.37;18.73;;;;;10.30;101599.00;;;;10432059;28;20235;-78
2021/09/23 05:50:37;;;;;;;34.20;20.03;;;;;10.40;101606.00;;;;10426442;28;20226;-77
2021/09/23 05:55:39;;;;;;;35.23;18.20;;;;;10.50;101595.00;;;;10425839;28;20703;-77
2021/09/23 06:00:41;;;;;;;30.43;17.57;;;;;10.60;101598.00;;;;10426560;28;20190;-76
2021/09/23 06:05:43;;;;;;;32.07;19.03;;;;;10.90;101600.00;;;;10452318;28;20701;-76
2021/09/23 06:10:45;;;;;;;32.40;19.80;;;;;11.30;101615.00;;;;10483339;28;20261;-77
2021/09/23 06:15:47;;;;;;;27.50;18.63;;;;;11.70;101615.00;;;;10500889;28;20232;-78
2021/09/23 06:20:49;;;;;;;29.73;19.10;;;;;12.00;101606.00;;;;10434318;28;20206;-76
2021/09/23 06:25:51;;;;;;;30.60;18.73;;;;;12.20;101626.00;;;;10460450;28;20245;-77
2021/09/23 06:30:53;;;;;;;25.37;16.47;;;;;12.40;101631.00;;;;10420300;28;20182;-77
2021/09/23 06:35:55;;;;;;;25.63;17.60;;;;;12.60;101640.00;;;;10424939;28;20222;-78
2021/09/23 06:40:57;;;;;;;27.73;19.23;;;;;12.80;101625.00;;;;10392325;28;20210;-77
2021/09/23 06:45:59;;;;;;;37.43;23.30;;;;;13.10;101635.00;;;;10438259;28;20202;-78
2021/09/23 06:51:03;;;;;;;31.67;21.37;;;;;13.40;101643.00;;;;10416035;28;20200;-77
2021/09/23 06:56:05;;;;;;;30.67;20.77;;;;;13.70;101641.00;;;;10445873;28;20292;-78
2021/09/23 07:01:07;;;;;;;29.57;19.47;;;;;14.10;101636.00;;;;10467548;28;20653;-78
2021/09/23 07:06:33;;;;;;;34.00;19.57;;;;;14.40;101638.00;;;;10424879;28;20657;-77
2021/09/23 07:11:36;;;;;;;30.30;18.67;;;;;14.60;101639.00;;;;10424080;28;20194;-78
2021/09/23 07:16:38;;;;;;;27.33;19.07;;;;;14.70;101638.00;;;;10453751;28;20202;-78
2021/09/23 07:21:41;;;;;;;27.33;19.50;;;;;14.90;101628.00;;;;10473119;28;20214;-78
2021/09/23 07:26:43;;;;;;;30.33;20.60;;;;;15.10;101626.00;;;;10426270;28;20197;-78
2021/09/23 07:31:45;;;;;;;28.37;19.63;;;;;15.50;101631.00;;;;10482183;28;20189;-77
2021/09/23 07:36:47;;;;;;;38.50;21.67;;;;;15.80;101629.00;;;;10407843;28;20202;-77
2021/09/23 07:41:50;;;;;;;29.63;20.45;;;;;16.10;101622.00;;;;10425902;28;20268;-77
2021/09/23 07:46:54;;;;;;;32.60;20.50;;;;;16.30;101625.00;;;;10425584;28;20197;-77
2021/09/23 07:51:56;;;;;;;28.55;20.30;;;;;16.60;101624.00;;;;10413222;28;20198;-78
2021/09/23 07:56:59;;;;;;;34.13;20.45;;;;;16.90;101615.00;;;;10445536;28;20709;-77
2021/09/23 08:02:01;;;;;;;32.25;21.92;;;;;17.20;101604.00;;;;10479502;28;20675;-77
2021/09/23 08:07:06;;;;;;;28.42;21.23;;;;;17.40;101605.00;;;;10473885;28;20253;-78
2021/09/23 08:12:08;;;;;;;32.25;20.52;;;;;17.60;101598.00;;;;10399745;28;20197;-77
2021/09/23 08:17:13;;;;;;;27.60;20.35;;;;;17.90;101587.00;;;;10481224;28;20209;-77
2021/09/23 08:22:34;;;;;;;26.25;19.90;;;;;18.40;101557.00;;;;10448708;28;20219;-77
2021/09/23 08:27:36;;;;;;;25.92;18.38;;;;;18.90;101559.00;;;;10437287;28;20285;-77
2021/09/23 08:32:38;;;;;;;26.50;18.13;;;;;19.20;101552.00;;;;10468144;28;20190;-78
2021/09/23 08:37:40;;;;;;;26.60;18.90;;;;;19.40;101558.00;;;;10451244;28;20600;-78
2021/09/23 08:42:45;;;;;;;23.10;18.20;;;;;19.80;101552.00;;;;10476981;28;20221;-77
2021/09/23 08:47:49;;;;;;;22.30;17.02;;;;;20.20;101531.00;;;;10409829;28;20198;-77
2021/09/23 08:52:51;;;;;;;25.15;16.27;;;;;20.10;101528.00;;;;10442739;28;20228;-77
2021/09/23 08:57:58;;;;;;;22.58;16.73;;;;;20.20;101524.00;;;;10422024;28;20220;-76
2021/09/23 09:03:06;;;;;;;22.55;17.10;;;;;20.60;101506.00;;;;10447654;28;20233;-77
2021/09/23 09:08:31;;;;;;;22.70;16.55;;;;;21.20;101504.00;;;;10449619;28;20205;-77
2021/09/23 09:13:41;;;;;;;25.00;17.35;;;;;21.10;101516.00;;;;10467110;28;20615;-77
2021/09/23 09:18:45;;;;;;;19.25;17.15;;;;;20.80;101517.00;;;;10423046;28;20271;-77
2021/09/23 09:23:47;;;;;;;28.10;18.13;;;;;21.00;101522.00;;;;10443268;28;20303;-77
2021/09/23 09:28:54;;;;;;;23.50;16.15;;;;;21.30;101520.00;;;;10425374;28;20735;-77
2021/09/23 09:34:01;;;;;;;17.85;14.43;;;;;21.70;101499.00;;;;10449247;28;20193;-77
2021/09/23 09:39:19;;;;;;;20.65;15.65;;;;;22.00;101491.00;;;;10482575;28;20698;-77
2021/09/23 09:44:23;;;;;;;18.58;14.80;;;;;22.30;101480.00;;;;10464888;28;20550;-77
2021/09/23 09:49:30;;;;;;;16.98;13.32;;;;;22.60;101483.00;;;;10461379;28;20646;-77
2021/09/23 09:54:32;;;;;;;17.48;12.93;;;;;22.60;101478.00;;;;10472167;28;20276;-76
2021/09/23 09:59:34;;;;;;;16.90;11.90;;;;;22.70;101481.00;;;;10423490;28;20202;-77
2021/09/23 10:04:37;;;;;;;13.07;10.40;;;;;22.50;101491.00;;;;10435513;28;20214;-77
2021/09/23 10:09:39;;;;;;;15.90;10.73;;;;;22.90;101493.00;;;;10437114;28;20233;-77
2021/09/23 10:14:45;;;;;;;15.63;11.98;;;;;23.20;101475.00;;;;10481810;28;20202;-77
2021/09/23 10:19:48;;;;;;;24.05;11.88;;;;;23.00;101486.00;;;;10402834;28;20229;-78
2021/09/23 10:24:51;;;;;;;23.02;11.82;;;;;23.40;101480.00;;;;10461011;28;20259;-77
2021/09/23 10:29:54;;;;;;;14.80;10.88;;;;;23.60;101474.00;;;;10448454;28;20285;-78
2021/09/23 10:34:56;;;;;;;17.90;11.50;;;;;23.80;101482.00;;;;10456551;28;20197;-77
2021/09/23 10:40:00;;;;;;;16.15;9.65;;;;;23.30;101476.00;;;;10454843;28;20246;-77
2021/09/23 10:45:08;;;;;;;25.92;10.15;;;;;23.70;101476.00;;;;10422658;28;20233;-77
2021/09/23 10:50:11;;;;;;;14.25;10.70;;;;;24.00;101481.00;;;;10438956;28;20239;-77
2021/09/23 10:55:14;;;;;;;16.05;10.32;;;;;23.90;101483.00;;;;10447350;28;20186;-77
2021/09/23 11:00:22;;;;;;;17.95;12.45;;;;;23.70;101483.00;;;;10436164;28;20233;-77
2021/09/23 11:05:25;;;;;;;19.73;13.30;;;;;23.60;101474.00;;;;10405033;28;20669;-77
2021/09/23 11:10:27;;;;;;;17.10;11.00;;;;;23.70;101470.00;;;;10422166;28;20194;-77
2021/09/23 11:15:31;;;;;;;16.27;10.15;;;;;23.40;101457.00;;;;10434952;28;20182;-77
2021/09/23 11:20:35;;;;;;;17.08;10.15;;;;;23.90;101463.00;;;;10472011;28;20209;-77
2021/09/23 11:25:48;;;;;;;19.23;11.02;;;;;24.50;101456.00;;;;10477133;28;20206;-77
2021/09/23 11:30:58;;;;;;;18.80;9.60;;;;;25.40;101441.00;;;;10436955;28;20244;-77
2021/09/23 11:36:01;;;;;;;14.10;9.20;;;;;25.20;101450.00;;;;10437366;28;20182;-78
2021/09/23 11:41:04;;;;;;;9.77;7.88;;;;;23.90;101428.00;;;;10421945;28;20210;-77
2021/09/23 11:46:10;;;;;;;13.23;7.28;;;;;23.60;101456.00;;;;10429800;28;20803;-77
2021/09/23 11:51:15;;;;;;;9.32;5.70;;;;;23.00;101462.00;;;;10429028;28;20198;-76
2021/09/23 11:56:24;;;;;;;9.27;6.30;;;;;23.30;101454.00;;;;10396768;28;20198;-77
2021/09/23 12:01:28;;;;;;;8.95;6.13;;;;;24.20;101447.00;;;;10451975;28;20209;-77
2021/09/23 12:06:30;;;;;;;10.98;6.70;;;;;24.90;101446.00;;;;10468359;28;20263;-77
2021/09/23 12:11:49;;;;;;;11.52;6.63;;;;;25.10;101445.00;;;;10452386;28;20194;-77
2021/09/23 12:17:14;;;;;;;30.83;8.57;;;;;24.50;101440.00;;;;10395469;28;20213;-77
2021/09/23 12:22:35;;;;;;;7.57;6.55;;;;;24.20;101444.00;;;;10464685;28;20216;-77
2021/09/23 12:27:38;;;;;;;10.15;6.25;;;;;23.90;101452.00;;;;10485812;28;20551;-77
2021/09/23 12:32:42;;;;;;;7.43;5.55;;;;;23.30;101437.00;;;;10468424;28;20194;-78
2021/09/23 12:37:45;;;;;;;6.20;4.70;;;;;23.40;101439.00;;;;10470816;28;20272;-77
2021/09/23 12:43:17;;;;;;;7.90;5.20;;;;;23.80;101428.00;;;;10442183;28;20673;-77
2021/09/23 12:48:21;;;;;;;8.48;5.57;;;;;23.90;101419.00;;;;10465990;28;20243;-77
2021/09/23 12:53:23;;;;;;;7.50;5.28;;;;;23.90;101418.00;;;;10452617;28;20183;-77
2021/09/23 12:58:27;;;;;;;7.57;5.03;;;;;24.00;101415.00;;;;10443167;28;20251;-77
2021/09/23 13:03:31;;;;;;;8.48;5.18;;;;;24.00;101407.00;;;;10447217;28;20301;-78
2021/09/23 13:08:46;;;;;;;8.95;4.40;;;;;23.90;101407.00;;;;10427765;28;20248;-77
2021/09/23 13:13:50;;;;;;;8.30;5.13;;;;;24.10;101395.00;;;;10447589;28;20259;-78
2021/09/23 13:18:56;;;;;;;5.90;4.60;;;;;24.30;101395.00;;;;10433100;28;20202;-77
2021/09/23 13:24:17;;;;;;;8.25;4.85;;;;;24.50;101394.00;;;;10426584;28;20224;-77
2021/09/23 13:29:21;;;;;;;8.90;4.45;;;;;24.70;101387.00;;;;10448506;28;20224;-77
2021/09/23 13:34:25;;;;;;;5.32;4.63;;;;;24.60;101394.00;;;;10434718;28;20190;-77
2021/09/23 13:39:31;;;;;;;5.53;4.50;;;;;25.40;101398.00;;;;10460843;28;20524;-77
2021/09/23 13:44:33;;;;;;;5.13;2.70;;;;;25.20;101381.00;;;;10445989;28;20217;-77
2021/09/23 13:49:41;;;;;;;5.63;2.47;;;;;24.40;101376.00;;;;10441447;28;20186;-77
2021/09/23 13:54:43;;;;;;;4.68;2.80;;;;;24.40;101363.00;;;;10503463;28;20193;-77
2021/09/23 13:59:47;;;;;;;4.00;2.50;;;;;24.50;101368.00;;;;10496871;28;20198;-77
2021/09/23 14:04:50;;;;;;;5.05;2.75;;;;;24.00;101363.00;;;;10457284;28;20205;-76
2021/09/23 14:09:52;;;;;;;7.90;2.72;;;;;23.60;101368.00;;;;10475562;28;20265;-77
2021/09/23 14:15:06;;;;;;;6.00;2.30;;;;;23.80;101355.00;;;;10470618;28;20186;-77
2021/09/23 14:20:09;;;;;;;5.22;1.70;;;;;24.00;101356.00;;;;10481347;28;20197;-77
2021/09/23 14:25:12;;;;;;;4.95;1.90;;;;;23.90;101358.00;;;;10444133;28;20232;-77
2021/09/23 14:30:15;;;;;;;5.15;2.20;;;;;23.50;101352.00;;;;10466963;28;20653;-75
2021/09/23 14:35:18;;;;;;;5.00;2.78;;;;;22.90;101362.00;;;;10477328;28;20186;-76
2021/09/23 14:40:26;;;;;;;3.65;2.10;;;;;22.50;101362.00;;;;10476958;28;20271;-76
2021/09/23 14:45:28;;;;;;;2.35;1.85;;;;;22.20;101348.00;;;;10429048;28;20243;-76
2021/09/23 14:50:30;;;;;;;5.95;1.92;;;;;22.40;101342.00;;;;10431670;28;20221;-76
2021/09/23 14:55:33;;;;;;;2.28;1.73;;;;;22.40;101340.00;;;;10434411;28;20194;-76
2021/09/23 15:00:35;;;;;;;3.95;2.17;;;;;22.40;101335.00;;;;10486463;28;20202;-77
2021/09/23 15:05:38;;;;;;;13.57;3.13;;;;;22.60;101326.00;;;;10445668;28;20241;-77
2021/09/23 15:10:45;;;;;;;9.50;2.25;;;;;22.60;101326.00;;;;10453028;28;20217;-77
2021/09/23 15:15:47;;;;;;;3.08;1.80;;;;;22.60;101329.00;;;;10462427;28;20194;-77
2021/09/23 15:20:50;;;;;;;7.07;2.08;;;;;22.30;101332.00;;;;10437455;28;20201;-77
2021/09/23 15:25:52;;;;;;;2.63;1.70;;;;;21.80;101332.00;;;;10480142;28;20236;-77
2021/09/23 15:30:54;;;;;;;8.27;2.08;;;;;21.40;101330.00;;;;10455262;28;20213;-76
2021/09/23 15:35:57;;;;;;;5.28;2.30;;;;;21.20;101315.00;;;;10456423;28;20276;-76
2021/09/23 15:40:59;;;;;;;6.03;1.73;;;;;21.00;101329.00;;;;10499033;28;20210;-76
2021/09/23 15:46:02;;;;;;;5.57;2.35;;;;;20.80;101325.00;;;;10481435;28;20210;-77
2021/09/23 15:51:05;;;;;;;6.15;2.03;;;;;20.70;101325.00;;;;10473672;28;20193;-77
2021/09/23 15:56:07;;;;;;;6.38;2.90;;;;;20.50;101318.00;;;;10488150;28;20242;-77
2021/09/23 16:01:09;;;;;;;4.28;2.30;;;;;20.30;101332.00;;;;10504215;28;20679;-77
2021/09/23 16:06:11;;;;;;;11.25;2.08;;;;;20.10;101326.00;;;;10483628;28;20589;-77
2021/09/23 16:11:15;;;;;;;8.73;2.30;;;;;20.00;101322.00;;;;10478350;28;20190;-77
2021/09/23 16:16:17;;;;;;;4.88;2.03;;;;;19.90;101328.00;;;;10442330;28;20193;-77
2021/09/23 16:21:21;;;;;;;4.68;2.20;;;;;19.80;101338.00;;;;10477148;28;20300;-78
2021/09/23 16:26:25;;;;;;;4.20;2.10;;;;;19.70;101337.00;;;;10478570;28;20209;-78
2021/09/23 16:31:27;;;;;;;3.83;1.70;;;;;19.70;101320.00;;;;10484322;28;20198;-77
2021/09/23 16:36:30;;;;;;;6.53;2.70;;;;;19.50;101339.00;;;;10452422;28;20241;-78
2021/09/23 16:41:38;;;;;;;4.45;2.00;;;;;19.40;101337.00;;;;10442220;28;20628;-78
2021/09/23 16:46:40;;;;;;;5.72;2.20;;;;;19.40;101327.00;;;;10487384;28;20209;-77
2021/09/23 16:51:42;;;;;;;9.65;2.08;;;;;19.40;101322.00;;;;10457463;28;20288;-78
2021/09/23 16:56:44;;;;;;;10.02;2.13;;;;;19.30;101330.00;;;;10448859;28;22092;-77
2021/09/23 17:01:46;;;;;;;5.60;2.22;;;;;19.30;101314.00;;;;10486130;28;20671;-78
2021/09/23 17:06:48;;;;;;;5.82;2.40;;;;;19.20;101326.00;;;;10495126;28;20267;-77
2021/09/23 17:11:50;;;;;;;4.25;2.47;;;;;19.20;101325.00;;;;10468030;28;20261;-77
2021/09/23 17:16:52;;;;;;;5.88;2.10;;;;;19.20;101317.00;;;;10472388;28;20348;-78
2021/09/23 17:21:54;;;;;;;5.28;2.38;;;;;19.10;101319.00;;;;10482974;28;20710;-78
2021/09/23 17:26:57;;;;;;;5.93;2.35;;;;;19.10;101322.00;;;;10455873;28;20593;-77
2021/09/23 17:31:59;;;;;;;7.95;2.30;;;;;19.00;101315.00;;;;10442823;28;20226;-78
2021/09/23 17:37:02;;;;;;;7.85;2.33;;;;;19.00;101321.00;;;;10483158;28;20201;-77
2021/09/23 17:42:04;;;;;;;8.73;2.10;;;;;19.00;101333.00;;;;10480043;28;20296;-78
2021/09/23 17:47:09;;;;;;;10.00;2.40;;;;;18.90;101319.00;;;;10448261;28;20229;-78
2021/09/23 17:52:13;;;;;;;4.70;2.10;;;;;18.80;101318.00;;;;10440027;28;20277;-78
2021/09/23 17:57:15;;;;;;;6.82;1.95;;;;;18.70;101321.00;;;;10451378;28;20569;-77
2021/09/23 18:02:17;;;;;;;5.70;2.67;;;;;18.60;101319.00;;;;10468825;28;20196;-77
2021/09/23 18:07:24;;;;;;;10.40;2.55;;;;;18.50;101331.00;;;;10457277;28;20201;-77
2021/09/23 18:12:26;;;;;;;5.07;2.42;;;;;18.50;101323.00;;;;10498980;28;20196;-77
2021/09/23 18:17:28;;;;;;;6.68;2.33;;;;;18.50;101315.00;;;;10464473;28;20280;-77
2021/09/23 18:22:35;;;;;;;10.15;2.55;;;;;18.30;101327.00;;;;10489957;28;20194;-78
2021/09/23 18:27:38;;;;;;;7.00;2.80;;;;;18.20;101324.00;;;;10466272;28;20189;-78
2021/09/23 18:32:42;;;;;;;4.20;2.53;;;;;18.20;101336.00;;;;10475521;28;20186;-79
2021/09/23 18:37:44;;;;;;;5.18;2.20;;;;;18.20;101332.00;;;;10432168;28;20190;-78
2021/09/23 18:42:46;;;;;;;6.75;2.53;;;;;18.10;101332.00;;;;10479704;28;20224;-77
2021/09/23 18:47:50;;;;;;;5.57;2.75;;;;;17.90;101315.00;;;;10484188;28;20189;-77
2021/09/23 18:52:52;;;;;;;4.63;2.65;;;;;17.70;101308.00;;;;10503695;28;20644;-77
2021/09/23 18:57:54;;;;;;;6.95;2.53;;;;;17.60;101321.00;;;;10463298;28;20200;-78
2021/09/23 19:02:57;;;;;;;8.88;3.25;;;;;17.50;101319.00;;;;10469635;28;20201;-78
2021/09/23 19:08:00;;;;;;;7.30;3.00;;;;;17.30;101325.00;;;;10454882;28;20197;-77
2021/09/23 19:13:20;;;;;;;6.70;3.55;;;;;17.20;101320.00;;;;10467662;28;20185;-77
2021/09/23 19:18:23;;;;;;;7.32;3.08;;;;;17.10;101325.00;;;;10464135;28;20212;-78
2021/09/23 19:23:25;;;;;;;10.73;3.60;;;;;17.00;101335.00;;;;10467750;28;20663;-78
2021/09/23 19:28:26;;;;;;;4.72;2.95;;;;;16.90;101335.00;;;;10446440;28;20276;-77
2021/09/23 19:33:29;;;;;;;8.45;3.10;;;;;16.90;101341.00;;;;10463104;28;20200;-77
2021/09/23 19:38:31;;;;;;;8.32;3.17;;;;;16.90;101347.00;;;;10451071;28;20221;-77
2021/09/23 19:43:33;;;;;;;9.07;3.50;;;;;17.30;101359.00;;;;10479438;28;20437;-77
2021/09/23 19:48:36;;;;;;;6.40;2.90;;;;;17.00;101363.00;;;;10500026;28;20189;-78
2021/09/23 19:53:38;;;;;;;9.00;3.55;;;;;16.90;101361.00;;;;10446555;28;20284;-78
2021/09/23 19:58:45;;;;;;;7.22;2.97;;;;;16.80;101377.00;;;;10436453;28;20245;-77
2021/09/23 20:03:49;;;;;;;6.00;2.38;;;;;16.70;101368.00;;;;10457995;28;20664;-77
2021/09/23 20:08:51;;;;;;;6.50;3.33;;;;;16.60;101367.00;;;;10456853;28;20193;-78
2021/09/23 20:13:53;;;;;;;7.35;3.95;;;;;16.50;101369.00;;;;10474978;28;20197;-78
2021/09/23 20:18:54;;;;;;;6.60;3.75;;;;;16.40;101365.00;;;;10474001;28;20706;-77
2021/09/23 20:23:58;;;;;;;8.63;3.63;;;;;16.50;101379.00;;;;10436190;28;20578;-78
2021/09/23 20:29:00;;;;;;;8.57;4.00;;;;;16.50;101364.00;;;;10438979;28;20200;-78
2021/09/23 20:34:02;;;;;;;10.07;3.65;;;;;16.40;101378.00;;;;10454820;28;20182;-78
2021/09/23 20:39:04;;;;;;;6.57;3.47;;;;;16.40;101370.00;;;;10489915;28;20217;-78
2021/09/23 20:44:07;;;;;;;5.13;3.53;;;;;16.30;101366.00;;;;10455992;28;20212;-77
2021/09/23 20:49:09;;;;;;;6.78;3.22;;;;;16.30;101374.00;;;;10439953;28;20205;-77
2021/09/23 20:54:11;;;;;;;8.53;3.23;;;;;16.30;101370.00;;;;10484794;28;20213;-77
2021/09/23 20:59:21;;;;;;;8.00;3.75;;;;;16.20;101372.00;;;;10480658;28;20239;-78
2021/09/23 21:04:23;;;;;;;8.60;3.20;;;;;16.20;101373.00;;;;10480941;28;20202;-77
2021/09/23 21:09:26;;;;;;;8.87;3.30;;;;;16.10;101368.00;;;;10461850;28;20250;-77
2021/09/23 21:14:28;;;;;;;7.00;3.08;;;;;16.20;101377.00;;;;10477202;28;20189;-78
2021/09/23 21:19:30;;;;;;;6.95;3.40;;;;;16.20;101373.00;;;;10456492;28;20208;-78
2021/09/23 21:24:32;;;;;;;8.37;3.10;;;;;16.20;101367.00;;;;10463968;28;20263;-78
2021/09/23 21:29:35;;;;;;;10.05;3.00;;;;;16.20;101372.00;;;;10470526;28;20198;-78
2021/09/23 21:34:37;;;;;;;6.68;3.03;;;;;16.20;101347.00;;;;10454499;28;20289;-78
2021/09/23 21:39:39;;;;;;;8.38;3.00;;;;;16.20;101356.00;;;;10475109;28;20758;-77
2021/09/23 21:44:41;;;;;;;9.17;3.17;;;;;16.30;101366.00;;;;10486901;28;20221;-77
2021/09/23 21:49:42;;;;;;;5.60;3.10;;;;;16.30;101347.00;;;;10450308;28;20523;-77
2021/09/23 21:54:44;;;;;;;9.82;3.78;;;;;16.30;101363.00;;;;10479428;28;20185;-77
2021/09/23 21:59:46;;;;;;;8.05;3.78;;;;;16.20;101359.00;;;;10440900;28;20208;-77
2021/09/23 22:04:48;;;;;;;7.25;3.58;;;;;16.20;101350.00;;;;10463389;28;20206;-77
2021/09/23 22:09:50;;;;;;;5.68;3.67;;;;;16.10;101355.00;;;;10452470;28;20185;-78
2021/09/23 22:14:52;;;;;;;9.50;3.80;;;;;16.00;101346.00;;;;10464869;28;20193;-77
2021/09/23 22:19:55;;;;;;;8.13;3.97;;;;;16.00;101344.00;;;;10460523;28;20672;-77
2021/09/23 22:24:57;;;;;;;9.75;4.25;;;;;15.90;101343.00;;;;10443171;28;20301;-77
2021/09/23 22:29:59;;;;;;;7.97;4.37;;;;;15.80;101343.00;;;;10474525;28;20284;-77
2021/09/23 22:35:03;;;;;;;7.60;5.20;;;;;15.80;101334.00;;;;10458089;28;20213;-77
2021/09/23 22:40:07;;;;;;;7.50;4.37;;;;;15.70;101343.00;;;;10423247;28;20225;-78
2021/09/23 22:45:10;;;;;;;10.97;4.80;;;;;15.70;101334.00;;;;10436377;28;20779;-77
2021/09/23 22:50:13;;;;;;;7.83;4.70;;;;;15.60;101339.00;;;;10466826;28;20289;-77
2021/09/23 22:55:15;;;;;;;11.07;5.13;;;;;15.50;101337.00;;;;10462516;28;20190;-78
2021/09/23 23:00:17;;;;;;;12.00;5.90;;;;;15.40;101325.00;;;;10449573;28;20261;-78
2021/09/23 23:05:20;;;;;;;12.23;5.87;;;;;15.40;101317.00;;;;10455056;28;20236;-78
2021/09/23 23:10:22;;;;;;;10.87;6.57;;;;;15.30;101314.00;;;;10463087;28;20245;-77
2021/09/23 23:15:24;;;;;;;8.50;5.23;;;;;15.30;101310.00;;;;10461563;28;20200;-78
2021/09/23 23:20:26;;;;;;;14.93;7.13;;;;;15.20;101307.00;;;;10473986;28;20284;-77
2021/09/23 23:25:28;;;;;;;11.47;6.40;;;;;15.10;101313.00;;;;10451784;28;20202;-78
2021/09/23 23:30:30;;;;;;;8.77;6.23;;;;;15.00;101308.00;;;;10451994;28;20205;-78
2021/09/23 23:35:32;;;;;;;11.33;7.40;;;;;15.00;101303.00;;;;10435089;28;20229;-77
2021/09/23 23:40:36;;;;;;;14.67;7.67;;;;;14.90;101309.00;;;;10420748;28;20280;-78
2021/09/23 23:45:42;;;;;;;9.87;6.37;;;;;14.80;101309.00;;;;10451270;28;20256;-78
2021/09/23 23:50:44;;;;;;;11.23;7.83;;;;;14.80;101303.00;;;;10463896;28;20202;-78
2021/09/23 23:55:53;;;;;;;15.40;8.27;;;;;14.80;101307.00;;;;10485768;28;20211;-78
